Delta Virtual Airport Information Service

Tampa International Airport

ICAO: KTPA Country: United States
Latitude: 27.9755 Longitude: -82.5332
Latest Arrival : NKS745 (1) (KORD-KTPA) Latest Departure : DALJUMP (KTPA-KATL)


WX CaptureLIVE
Data provided by noaa.gov | Fetched at 09:10:22

METAR : KTPA 041353Z 24005KT 10SM SCT035 31/23 A2999 RMK AO2 SLP155 TCU DSNT S-W T03110233

TAF : KTPA 041127Z 0412/0518 VRB04KT P6SM SCT050 SCT250 FM041500 23006KT P6SM VCSH SCT030 SCT250 FM041700 26008KT P6SM VCTS SCT035CB SCT250 FM042100 29008KT P6SM SCT040 SCT250 FM050200 VRB03KT P6SM FEW040 SCT250


Runway Data for KTPA
Data provided by openaviationdata.com

Runway ID Mag Var Hdg Length Elevation Surface ILS Freq ILS Id ILS Slope
9 -2 93° 6992 ft 26 ft Concrete -- -- --
18L -2 183° 8323 ft 26 ft Concrete 110.3 ITPA 3
18R -2 183° 11032 ft 26 ft Concrete 108.5 IJRT 3
27 -2 273° 6992 ft 26 ft Concrete -- -- --
36L -2 11032 ft 26 ft Concrete 108.9 IAMP 3
36R -2 8323 ft 26 ft Concrete 111.95 ITWJ 0

Tampa International Airport, United States
Use only for reference purposes



Not for navigational purposes.